createdAt,value
2022-08-31T00:00:40.564Z,6.45
2022-08-31T00:03:26.682Z,7.57
2022-08-31T00:05:59.974Z,7.40
2022-08-31T00:08:29.650Z,4.68
2022-08-31T00:10:58.352Z,5.47
2022-08-31T00:13:27.854Z,6.38
2022-08-31T00:15:58.534Z,6.20
2022-08-31T00:18:27.068Z,9.05
2022-08-31T00:20:56.357Z,5.88
2022-08-31T00:23:26.299Z,7.47
2022-08-31T00:25:54.869Z,5.43
2022-08-31T00:28:23.536Z,7.25
2022-08-31T00:30:52.068Z,6.47
2022-08-31T00:33:20.629Z,7.75
2022-08-31T00:35:49.533Z,4.97
2022-08-31T00:38:18.513Z,6.72
2022-08-31T00:40:49.209Z,7.05
2022-08-31T00:43:41.112Z,8.05
2022-08-31T00:46:11.237Z,5.30
2022-08-31T00:48:46.092Z,5.10
2022-08-31T00:51:18.574Z,6.88
2022-08-31T00:53:48.852Z,5.00
2022-08-31T00:56:21.962Z,6.35
2022-08-31T00:58:54.446Z,5.93
2022-08-31T01:01:24.418Z,7.22
2022-08-31T01:03:53.127Z,7.68
2022-08-31T01:06:22.129Z,5.68
2022-08-31T01:08:52.088Z,5.55
2022-08-31T01:11:22.673Z,9.77
2022-08-31T01:13:51.334Z,6.32
2022-08-31T01:16:24.118Z,6.10
2022-08-31T01:18:54.391Z,5.18
2022-08-31T01:21:28.087Z,6.78
2022-08-31T01:24:01.740Z,6.18
2022-08-31T01:26:33.149Z,6.15
2022-08-31T01:29:06.229Z,7.90
2022-08-31T01:31:38.567Z,7.75
2022-08-31T01:34:08.097Z,6.53
2022-08-31T01:36:38.718Z,7.13
2022-08-31T01:39:09.716Z,6.20
2022-08-31T01:41:41.534Z,7.20
2022-08-31T01:44:10.850Z,9.15
2022-08-31T01:46:39.530Z,6.90
2022-08-31T01:49:08.322Z,8.07
2022-08-31T01:51:37.199Z,9.55
2022-08-31T01:54:06.504Z,6.53
2022-08-31T01:56:38.729Z,9.27
2022-08-31T01:59:12.688Z,6.90
2022-08-31T02:02:00.288Z,6.53
2022-08-31T02:04:30.627Z,7.65
2022-08-31T02:07:17.737Z,6.95
2022-08-31T02:09:47.192Z,9.55
2022-08-31T02:12:17.268Z,7.47
2022-08-31T02:14:45.752Z,8.48
2022-08-31T02:17:14.481Z,8.32
2022-08-31T02:19:43.095Z,8.48
2022-08-31T02:22:12.889Z,10.35
2022-08-31T02:24:41.519Z,6.53
2022-08-31T02:27:17.582Z,8.13
2022-08-31T02:29:53.377Z,7.50
2022-08-31T02:32:25.238Z,6.75
2022-08-31T02:34:53.841Z,7.07
2022-08-31T02:37:22.364Z,8.60
2022-08-31T02:39:51.234Z,8.35
2022-08-31T02:42:23.112Z,6.97
2022-08-31T02:44:53.568Z,8.00
2022-08-31T02:47:22.232Z,7.82
2022-08-31T02:50:09.480Z,5.78
2022-08-31T02:52:38.500Z,6.63
2022-08-31T02:55:11.802Z,6.32
2022-08-31T02:57:40.680Z,7.97
2022-08-31T03:00:15.393Z,7.45
2022-08-31T03:02:44.141Z,6.38
2022-08-31T03:05:13.066Z,8.93
2022-08-31T03:07:42.272Z,6.47
2022-08-31T03:10:14.930Z,7.30
2022-08-31T03:12:45.065Z,7.18
2022-08-31T03:15:16.609Z,8.88
2022-08-31T03:17:48.255Z,5.85
2022-08-31T03:20:19.571Z,7.30
2022-08-31T03:22:48.360Z,5.57
2022-08-31T03:25:19.228Z,7.28
2022-08-31T03:27:47.878Z,7.65
2022-08-31T03:30:21.774Z,6.50
2022-08-31T03:33:09.978Z,6.35
2022-08-31T03:35:43.748Z,6.68
2022-08-31T03:38:14.134Z,5.60
2022-08-31T03:40:45.314Z,6.15
2022-08-31T03:43:14.715Z,7.18
2022-08-31T03:45:45.804Z,7.57
2022-08-31T03:48:14.751Z,6.22
2022-08-31T03:50:46.194Z,6.32
2022-08-31T03:53:23.603Z,5.72
2022-08-31T03:56:01.182Z,6.45
2022-08-31T03:58:33.447Z,5.63
2022-08-31T04:01:04.135Z,5.90
2022-08-31T04:03:52.635Z,7.15
2022-08-31T04:06:41.268Z,8.85
2022-08-31T04:09:28.199Z,7.22
2022-08-31T04:12:16.202Z,4.90
2022-08-31T04:15:03.612Z,6.43
2022-08-31T04:17:59.501Z,6.88
2022-08-31T04:23:13.985Z,8.52
2022-08-31T04:25:52.138Z,5.93
2022-08-31T04:28:20.767Z,8.27
2022-08-31T04:30:52.831Z,6.60
2022-08-31T04:33:23.636Z,9.93
2022-08-31T04:35:53.472Z,7.18
2022-08-31T04:38:21.992Z,7.05
2022-08-31T04:40:52.378Z,5.43
2022-08-31T04:43:21.249Z,6.03
2022-08-31T04:45:52.852Z,4.70
2022-08-31T04:48:23.174Z,4.63
2022-08-31T04:50:51.912Z,7.40
2022-08-31T04:53:20.615Z,8.18
2022-08-31T04:55:49.237Z,6.43
2022-08-31T04:58:20.598Z,6.43
2022-08-31T05:00:49.136Z,4.72
2022-08-31T05:03:35.923Z,4.70
2022-08-31T05:06:05.930Z,6.70
2022-08-31T05:08:35.213Z,6.82
2022-08-31T05:11:11.256Z,8.02
2022-08-31T05:13:39.965Z,7.63
2022-08-31T05:16:10.797Z,7.50
2022-08-31T05:18:42.533Z,7.35
2022-08-31T05:21:11.773Z,7.95
2022-08-31T05:23:40.905Z,7.13
2022-08-31T05:26:10.172Z,6.35
2022-08-31T05:28:39.272Z,5.85
2022-08-31T05:31:08.175Z,5.82
2022-08-31T05:33:46.890Z,9.45
2022-08-31T05:36:17.399Z,6.53
2022-08-31T05:38:46.139Z,5.72
2022-08-31T05:41:15.624Z,6.70
2022-08-31T05:43:45.164Z,5.63
2022-08-31T05:46:16.097Z,6.85
2022-08-31T05:48:49.479Z,6.95
2022-08-31T05:51:20.595Z,11.63
2022-08-31T05:53:50.015Z,5.20
2022-08-31T05:56:20.996Z,5.30
2022-08-31T05:58:51.559Z,5.45
2022-08-31T06:01:22.686Z,9.43
2022-08-31T06:04:13.379Z,6.07
2022-08-31T06:06:43.433Z,11.10
2022-08-31T06:09:14.889Z,17.77
2022-08-31T06:11:44.914Z,11.55
2022-08-31T06:14:18.557Z,9.43
2022-08-31T06:16:48.598Z,9.73
2022-08-31T06:19:21.716Z,6.28
2022-08-31T06:21:52.049Z,6.28
2022-08-31T06:24:28.011Z,7.18
2022-08-31T06:26:59.433Z,7.78
2022-08-31T06:29:32.901Z,6.53
2022-08-31T06:32:08.919Z,5.63
2022-08-31T06:34:43.642Z,4.75
2022-08-31T06:37:18.471Z,5.07
2022-08-31T06:40:07.186Z,4.78
2022-08-31T06:42:55.951Z,5.00
2022-08-31T06:45:43.022Z,11.70
2022-08-31T06:48:40.508Z,4.22
2022-08-31T06:51:12.437Z,6.68
2022-08-31T06:53:42.630Z,4.63
2022-08-31T06:56:36.131Z,5.25
2022-08-31T06:59:28.442Z,4.45
2022-08-31T07:01:58.659Z,5.15
2022-08-31T07:04:36.061Z,3.73
2022-08-31T07:07:07.914Z,6.13
2022-08-31T07:09:36.990Z,7.25
2022-08-31T07:12:06.292Z,5.57
2022-08-31T07:14:35.910Z,6.28
2022-08-31T07:17:05.367Z,6.22
2022-08-31T07:19:35.090Z,8.27
2022-08-31T07:22:09.426Z,5.97
2022-08-31T07:24:43.481Z,5.25
2022-08-31T07:27:16.600Z,3.88
2022-08-31T07:30:00.609Z,4.93
2022-08-31T07:32:34.133Z,4.47
2022-08-31T07:35:03.603Z,6.35
2022-08-31T07:37:52.258Z,5.28
2022-08-31T07:40:43.655Z,4.97
2022-08-31T07:43:15.128Z,6.63
2022-08-31T07:45:44.156Z,4.07
2022-08-31T07:48:16.744Z,4.95
2022-08-31T07:51:03.647Z,4.13
2022-08-31T07:53:57.831Z,4.50
2022-08-31T07:56:35.123Z,4.78
2022-08-31T07:59:17.682Z,4.45
2022-08-31T08:01:47.848Z,4.47
2022-08-31T08:04:25.623Z,5.95
2022-08-31T08:07:26.508Z,3.72
2022-08-31T08:10:14.580Z,7.05
2022-08-31T08:12:44.308Z,4.93
2022-08-31T08:15:33.209Z,3.45
2022-08-31T08:18:30.557Z,3.45
2022-08-31T08:21:03.128Z,3.03
2022-08-31T08:23:31.966Z,3.33
2022-08-31T08:26:21.648Z,9.80
2022-08-31T08:29:13.925Z,4.03
2022-08-31T08:31:46.462Z,4.47
2022-08-31T08:34:15.201Z,3.60
2022-08-31T08:36:43.805Z,2.40
2022-08-31T08:39:13.058Z,7.50
2022-08-31T08:41:54.380Z,3.85
2022-08-31T08:44:27.171Z,4.40
2022-08-31T08:46:58.284Z,5.68
2022-08-31T08:49:41.582Z,6.15
2022-08-31T08:52:16.067Z,4.32
2022-08-31T08:54:48.181Z,4.15
2022-08-31T08:57:23.729Z,4.55
2022-08-31T08:59:57.576Z,3.40
2022-08-31T09:02:32.683Z,4.55
2022-08-31T09:05:38.183Z,4.65
2022-08-31T09:08:48.299Z,5.03
2022-08-31T09:11:24.013Z,3.58
2022-08-31T09:14:10.089Z,3.58
2022-08-31T09:16:50.666Z,2.72
2022-08-31T09:19:21.880Z,4.13
2022-08-31T09:21:53.136Z,3.28
2022-08-31T09:24:26.922Z,4.10
2022-08-31T09:27:19.096Z,4.75
2022-08-31T09:29:55.448Z,3.63
2022-08-31T09:32:26.605Z,3.70
2022-08-31T09:35:01.867Z,3.80
2022-08-31T09:37:38.305Z,3.50
2022-08-31T09:40:23.664Z,3.60
2022-08-31T09:43:04.463Z,7.68
2022-08-31T09:45:42.038Z,4.53
2022-08-31T09:50:45.298Z,3.38
2022-08-31T09:53:39.565Z,5.60
2022-08-31T09:56:19.977Z,2.25
2022-08-31T09:58:51.098Z,3.53
2022-08-31T10:01:25.928Z,2.67
2022-08-31T10:04:12.399Z,4.57
2022-08-31T10:06:49.854Z,2.43
2022-08-31T10:09:28.727Z,3.17
2022-08-31T10:11:59.985Z,3.92
2022-08-31T10:14:36.826Z,3.65
2022-08-31T10:17:15.322Z,4.25
2022-08-31T10:19:53.491Z,2.90
2022-08-31T10:22:28.455Z,5.32
2022-08-31T10:25:12.278Z,1.90
2022-08-31T10:27:45.350Z,4.25
2022-08-31T10:30:29.342Z,3.05
2022-08-31T10:33:06.658Z,3.08
2022-08-31T10:35:45.056Z,5.53
2022-08-31T10:38:24.287Z,7.47
2022-08-31T10:41:02.622Z,2.60
2022-08-31T10:43:40.027Z,4.22
2022-08-31T10:46:08.622Z,2.00
2022-08-31T10:48:51.062Z,3.05
2022-08-31T10:51:27.104Z,5.25
2022-08-31T10:54:29.070Z,2.00
2022-08-31T10:57:06.666Z,2.72
2022-08-31T10:59:40.947Z,2.38
2022-08-31T11:02:39.173Z,2.67
2022-08-31T11:05:23.075Z,4.03
2022-08-31T11:08:00.825Z,5.45
2022-08-31T11:10:42.640Z,1.92
2022-08-31T11:13:25.663Z,5.43
2022-08-31T11:16:09.815Z,5.57
2022-08-31T11:19:19.570Z,1.77
2022-08-31T11:22:16.633Z,3.75
2022-08-31T11:25:29.637Z,2.35
2022-08-31T11:28:07.217Z,4.65
2022-08-31T11:30:41.851Z,3.00
2022-08-31T11:33:20.509Z,3.65
2022-08-31T11:36:10.417Z,1.88
2022-08-31T11:39:36.256Z,2.20
2022-08-31T11:42:10.451Z,4.63
2022-08-31T11:45:07.208Z,2.63
2022-08-31T11:47:39.017Z,2.53
2022-08-31T11:50:14.350Z,3.78
2022-08-31T11:52:48.424Z,1.17
2022-08-31T11:55:28.802Z,2.67
2022-08-31T11:58:35.021Z,1.73
2022-08-31T12:01:09.656Z,3.45
2022-08-31T12:03:46.296Z,1.30
2022-08-31T12:06:48.357Z,2.75
2022-08-31T12:09:32.781Z,1.65
2022-08-31T12:12:10.305Z,3.28
2022-08-31T12:14:47.579Z,1.75
2022-08-31T12:17:24.472Z,2.47
2022-08-31T12:20:03.138Z,4.88
2022-08-31T12:23:30.094Z,8.07
2022-08-31T12:26:32.315Z,2.85
2022-08-31T12:29:16.442Z,4.75
2022-08-31T12:31:59.265Z,2.72
2022-08-31T12:34:30.148Z,5.30
2022-08-31T12:36:58.612Z,1.40
2022-08-31T12:39:28.918Z,3.40
2022-08-31T12:42:01.124Z,3.00
2022-08-31T12:44:35.085Z,12.45
2022-08-31T12:47:05.904Z,2.33
2022-08-31T12:49:54.008Z,2.13
2022-08-31T12:52:40.007Z,1.60
2022-08-31T12:55:20.254Z,2.58
2022-08-31T12:57:55.559Z,5.30
2022-08-31T13:00:28.243Z,2.00
2022-08-31T13:03:00.118Z,2.00
2022-08-31T13:05:31.438Z,2.65
2022-08-31T13:08:00.690Z,4.78
2022-08-31T13:10:32.789Z,3.40
2022-08-31T13:13:04.855Z,5.15
2022-08-31T13:15:39.922Z,5.18
2022-08-31T13:18:12.195Z,1.25
2022-08-31T13:20:43.580Z,2.75
2022-08-31T13:23:15.335Z,2.38
2022-08-31T13:25:48.427Z,1.42
2022-08-31T13:28:26.300Z,2.28
2022-08-31T13:31:03.568Z,3.05
2022-08-31T13:33:35.133Z,2.75
2022-08-31T13:36:09.750Z,6.43
2022-08-31T13:38:53.352Z,4.28
2022-08-31T13:41:27.521Z,2.80
2022-08-31T13:44:02.753Z,4.72
2022-08-31T13:46:44.348Z,4.47
2022-08-31T13:49:33.765Z,2.13
2022-08-31T13:52:03.157Z,1.42
2022-08-31T13:54:33.500Z,1.70
2022-08-31T13:57:13.523Z,11.57
2022-08-31T13:59:42.248Z,2.00
2022-08-31T14:02:36.971Z,2.42
2022-08-31T14:05:13.048Z,4.25
2022-08-31T14:07:56.856Z,3.42
2022-08-31T14:10:27.539Z,0.98
2022-08-31T14:12:59.275Z,1.67
2022-08-31T14:15:41.331Z,2.53
2022-08-31T14:18:26.904Z,3.85
2022-08-31T14:21:25.413Z,1.42
2022-08-31T14:24:00.674Z,3.78
2022-08-31T14:26:31.688Z,2.88
2022-08-31T14:29:03.734Z,3.38
2022-08-31T14:31:37.281Z,4.28
2022-08-31T14:34:22.539Z,4.40
2022-08-31T14:36:54.639Z,2.35
2022-08-31T14:39:26.832Z,2.65
2022-08-31T14:41:58.579Z,7.32
2022-08-31T14:44:31.269Z,1.42
2022-08-31T14:47:00.064Z,1.55
2022-08-31T14:49:35.789Z,1.30
2022-08-31T14:52:06.906Z,1.08
2022-08-31T14:54:37.709Z,0.80
2022-08-31T14:57:12.550Z,0.73
2022-08-31T14:59:43.582Z,2.50
2022-08-31T15:02:16.506Z,1.77
2022-08-31T15:04:46.573Z,3.67
2022-08-31T15:07:16.016Z,2.83
2022-08-31T15:09:46.910Z,1.75
2022-08-31T15:12:16.262Z,1.83
2022-08-31T15:14:47.382Z,2.63
2022-08-31T15:17:19.870Z,1.05
2022-08-31T15:19:56.172Z,1.23
2022-08-31T15:22:26.861Z,1.67
2022-08-31T15:24:56.567Z,1.98
2022-08-31T15:27:29.040Z,2.67
2022-08-31T15:30:07.883Z,3.35
2022-08-31T15:32:45.482Z,5.50
2022-08-31T15:35:19.007Z,4.53
2022-08-31T15:37:53.256Z,2.75
2022-08-31T15:40:22.360Z,1.98
2022-08-31T15:42:51.138Z,3.85
2022-08-31T15:45:20.549Z,3.97
2022-08-31T15:48:06.416Z,4.30
2022-08-31T15:50:36.779Z,2.80
2022-08-31T15:53:10.013Z,3.03
2022-08-31T15:55:41.131Z,2.45
2022-08-31T15:58:10.972Z,1.27
2022-08-31T16:00:42.311Z,2.13
2022-08-31T16:03:11.522Z,3.60
2022-08-31T16:05:43.592Z,5.57
2022-08-31T16:08:13.357Z,1.50
2022-08-31T16:10:44.768Z,2.35
2022-08-31T16:13:13.746Z,2.33
2022-08-31T16:15:49.062Z,1.77
2022-08-31T16:18:19.384Z,1.75
2022-08-31T16:20:51.728Z,1.92
2022-08-31T16:23:21.216Z,3.17
2022-08-31T16:25:49.848Z,0.52
2022-08-31T16:28:20.664Z,3.40
2022-08-31T16:30:51.058Z,1.77
2022-08-31T16:33:20.313Z,1.13
2022-08-31T16:35:50.743Z,1.45
2022-08-31T16:38:19.513Z,2.60
2022-08-31T16:40:48.173Z,1.77
2022-08-31T16:43:16.739Z,2.50
2022-08-31T16:45:45.262Z,0.80
2022-08-31T16:48:31.351Z,0.98
2022-08-31T16:51:02.731Z,1.48
2022-08-31T16:53:32.328Z,1.70
2022-08-31T16:56:03.489Z,1.30
2022-08-31T16:58:52.145Z,0.63
2022-08-31T17:01:24.098Z,2.63
2022-08-31T17:03:55.989Z,3.40
2022-08-31T17:06:27.891Z,1.15
2022-08-31T17:08:57.974Z,2.45
2022-08-31T17:11:32.291Z,0.63
2022-08-31T17:14:03.484Z,2.25
2022-08-31T17:16:34.871Z,0.88
2022-08-31T17:19:06.614Z,3.75
2022-08-31T17:21:49.587Z,2.90
2022-08-31T17:24:21.795Z,2.65
2022-08-31T17:26:52.035Z,4.68
2022-08-31T17:29:23.836Z,1.20
2022-08-31T17:31:53.530Z,2.50
2022-08-31T17:34:28.423Z,0.80
2022-08-31T17:37:00.562Z,0.47
2022-08-31T17:39:30.288Z,1.58
2022-08-31T17:41:59.324Z,1.30
2022-08-31T17:44:31.065Z,2.15
2022-08-31T17:47:02.104Z,3.35
2022-08-31T17:49:37.707Z,0.95
2022-08-31T17:52:09.366Z,2.38
2022-08-31T17:54:42.161Z,1.45
2022-08-31T17:57:13.897Z,1.08
2022-08-31T17:59:44.516Z,2.20
2022-08-31T18:02:16.766Z,1.33
2022-08-31T18:04:45.591Z,2.67
2022-08-31T18:07:15.925Z,1.17
2022-08-31T18:09:47.042Z,3.17
2022-08-31T18:12:17.078Z,4.43
2022-08-31T18:14:46.080Z,2.70
2022-08-31T18:17:16.467Z,2.28
2022-08-31T18:19:45.588Z,0.77
2022-08-31T18:22:15.628Z,0.93
2022-08-31T18:24:45.007Z,0.80
2022-08-31T18:27:15.728Z,0.77
2022-08-31T18:29:45.323Z,1.60
2022-08-31T18:32:14.583Z,1.83
2022-08-31T18:34:47.557Z,0.68
2022-08-31T18:37:26.036Z,1.08
2022-08-31T18:40:12.271Z,0.80
2022-08-31T18:42:58.378Z,2.28
2022-08-31T18:45:27.531Z,1.60
2022-08-31T18:50:47.091Z,0.70
2022-08-31T18:53:27.557Z,0.73
2022-08-31T18:56:00.844Z,2.38
2022-08-31T18:58:30.112Z,1.70
2022-08-31T19:00:59.486Z,1.88
2022-08-31T19:03:29.244Z,1.73
2022-08-31T19:05:58.548Z,3.42
2022-08-31T19:08:28.706Z,2.83
2022-08-31T19:10:58.280Z,1.98
2022-08-31T20:08:30.914Z,1.65
2022-08-31T20:10:59.488Z,1.85
2022-08-31T20:13:28.582Z,3.25
2022-08-31T20:15:57.979Z,1.77
2022-08-31T20:18:28.269Z,2.08
2022-08-31T20:20:56.850Z,1.05
2022-08-31T20:23:25.623Z,2.53
2022-08-31T20:25:55.428Z,1.02
2022-08-31T20:28:27.006Z,1.98
2022-08-31T20:31:00.051Z,0.70
2022-08-31T20:33:29.081Z,3.72
2022-08-31T20:35:57.596Z,1.27
2022-08-31T20:38:29.009Z,1.10
2022-08-31T20:40:59.119Z,1.50
2022-08-31T20:43:32.565Z,1.05
2022-08-31T20:46:03.165Z,1.58
2022-08-31T20:48:49.416Z,1.40
2022-08-31T20:51:19.069Z,1.90
2022-08-31T20:53:48.901Z,0.60
2022-08-31T20:56:24.405Z,3.20
2022-08-31T20:58:52.888Z,10.35
2022-08-31T21:01:21.823Z,1.17
2022-08-31T21:03:50.396Z,1.63
2022-08-31T21:06:24.144Z,1.17
2022-08-31T21:08:56.576Z,0.63
2022-08-31T21:11:26.734Z,1.52
2022-08-31T21:13:55.675Z,2.05
2022-08-31T21:16:26.259Z,1.05
2022-08-31T21:18:55.140Z,1.15
2022-08-31T21:21:23.680Z,5.07
2022-08-31T21:23:52.110Z,0.98
2022-08-31T21:26:24.495Z,0.50
2022-08-31T21:28:56.693Z,1.52
2022-08-31T21:31:29.136Z,1.17
2022-08-31T21:34:00.128Z,3.47
2022-08-31T21:36:33.075Z,0.82
2022-08-31T21:39:02.512Z,0.95
2022-08-31T21:41:31.014Z,0.50
2022-08-31T21:44:01.143Z,3.97
2022-08-31T21:46:30.964Z,1.88
2022-08-31T21:49:00.379Z,0.80
2022-08-31T21:51:30.988Z,3.65
2022-08-31T21:54:02.529Z,1.88
2022-08-31T21:56:33.576Z,0.70
2022-08-31T21:59:03.990Z,1.10
2022-08-31T22:01:34.180Z,0.52
2022-08-31T22:04:04.656Z,0.60
2022-08-31T22:06:33.244Z,0.93
2022-08-31T22:09:05.775Z,1.45
2022-08-31T22:11:40.233Z,5.93
2022-08-31T22:14:11.477Z,1.00
2022-08-31T22:16:41.024Z,2.35
2022-08-31T22:19:13.381Z,1.40
2022-08-31T22:21:44.262Z,0.88
2022-08-31T22:24:26.956Z,0.88
2022-08-31T22:26:58.536Z,1.90
2022-08-31T22:29:31.491Z,1.98
2022-08-31T22:32:02.445Z,1.45
2022-08-31T22:34:31.255Z,1.65
2022-08-31T22:36:59.732Z,2.50
2022-08-31T22:39:30.262Z,1.05
2022-08-31T22:42:01.514Z,1.27
2022-08-31T22:44:34.560Z,1.00
2022-08-31T22:47:04.473Z,1.30
2022-08-31T22:49:33.260Z,1.65
2022-08-31T22:52:01.797Z,1.38
2022-08-31T22:54:30.880Z,1.42
2022-08-31T22:56:59.444Z,1.60
2022-08-31T22:59:28.371Z,23.67
2022-08-31T23:02:00.656Z,4.05
2022-08-31T23:04:30.035Z,1.05
2022-08-31T23:06:59.316Z,1.98
2022-08-31T23:09:31.112Z,1.80
2022-08-31T23:12:01.818Z,1.05
2022-08-31T23:14:32.157Z,1.10
2022-08-31T23:17:04.213Z,1.95
2022-08-31T23:19:37.099Z,1.92
2022-08-31T23:22:09.487Z,1.45
2022-08-31T23:24:40.844Z,2.03
2022-08-31T23:27:10.639Z,3.03
2022-08-31T23:29:41.196Z,0.80
2022-08-31T23:32:13.334Z,1.35
2022-08-31T23:34:42.858Z,1.73
2022-08-31T23:37:12.153Z,0.98
2022-08-31T23:39:44.696Z,1.98
2022-08-31T23:42:14.259Z,1.50
2022-08-31T23:44:44.440Z,1.02
2022-08-31T23:47:19.092Z,1.33
2022-08-31T23:49:50.779Z,1.27
2022-08-31T23:52:37.875Z,1.38
2022-08-31T23:55:07.131Z,0.55
2022-08-31T23:57:37.188Z,1.58
